• pl
  • eng

Awiacja
WIADOMOŚCI
ostatnia aktualizacja: 11.01.2019 18:40
Szanowni Państwo,

uprzejmie informujemy, że z dniem 01.01.2019 roku z obszaru MOLC zostanie wyłączone BPM we Wrocławiu. Jego zadania zostaną przejęte przez BPM w Krakowie.

Kliknij na pogrubioną czerwoną nazwę, aby odkodować depeszę. 05:01 20.02.2019
  • WIND
  • SIGNIFICANT EURO
  • SIGNIFICANT
  • SIGMET
  • AIRMET
  • TAF FC
  • TAF FT
  • METAR GG30
  • METAR GG00


METAR EPBY 200400Z 26012KT 9999 -SHRA SCT036CB BKN042 05/02 Q1013 =

METAR EPGD 200400Z 27017KT 9999 FEW004 BKN010 03/02 Q1009 =

METAR EPKK 200400Z 24005KT 8000 SCT031 BKN043 03/02 Q1017 =

METAR EPKT 200400Z 27009KT 9999 SCT027 03/01 Q1017 =

METAR EPLB 200400Z 26012KT 9999 SCT012 04/03 Q1013 =

METAR EPLL 200400Z 26012KT 9999 SCT017 BKN025 05/02 Q1015 =

METAR EPMO 200400Z 25013KT 9999 BKN045 05/02 Q1013 =

METAR EPPO 200400Z 26010KT 9999 SCT018 05/03 Q1016 R10/29//95 =

METAR EPRA 200400Z NIL=

METAR EPRZ 200400Z 26010KT 9999 SCT043 03/02 Q1016 =

METAR EPSC 200400Z 27010KT 9999 BKN016 OVC019 05/03 Q1015 =

METAR EPSY 200400Z NIL=

METAR EPWA 200400Z 27010KT 9999 FEW018 05/03 Q1013 NOSIG=

METAR EPWR 200400Z 28013KT CAVOK 06/02 Q1018 =

METAR EPZG 200400Z 23009KT CAVOK 05/04 Q1017 =
 METAR EPSY
:Brak depeszy METAR z EPSY z dnia 20 z godziny 04:00 UTC
Awiacja.imgw.pl jest pogodowym serwisem informacyjnym
Instytutu Meteorologii i Gospodarki Wodnej Państwowego Instytutu Badawczego.
Copyright IMGW PIB 2009-2011© Wszelkie prawa zastrzeżone.